DAUL/LOO METAR and TAF weather

Enter ICAO airport designator
Station Type Date Time Source
DAUL METAR 2020/04/06 17:00 UTC NOAA

DAUL 061700Z 36016KT 9999 FEW040 SCT200 25/M00 Q1020


Station Type Date Time Source
DAUL Decoded METAR 2020/04/06 17:00 UTC NOAA

Laghouat, Algeria (DAUL) 33-46N 002-56E 765M
Apr 06, 2020 - 01:00 PM EDT / 2020.04.06 1700 UTC
Wind: from the N (360 degrees) at 18 MPH (16 KT):0
Visibility: greater than 7 mile(s):0
Sky conditions: partly cloudy
Temperature: 77 F (25 C)
Dew Point: 32 F (0 C)
Relative Humidity: 19%
Pressure (altimeter): 30.12 in. Hg (1020 hPa)
ob: DAUL 061700Z 36016KT 9999 FEW040 SCT200 25/M00 Q1020
cycle: 17

Station Type Date Time Source
DAUL TAF 2017/11/09 18:03 UTC NOAA

TAF DAUL 091700Z 0918/1009 02012KT 9999 SCT030 SCT100 PROB40
TEMPO 0918/0924 35020G30KT 4000 -TSRA FEW030CB

Example: see airport list